Mission Ridge, South Dakota
Current Conditions -  °F | °C
As of 1:53 AM on Saturday 25 Oct 2014 (Local Time) from KPIR Reporting Station
Clear Clear  
Wind Chill: 44°   Ceiling: Unl
Heat Index: 47°   Visibility: 10mi
Dew Point: 36°   Wind: 6mph
Humidity: 66%   Direction: 330°NNW
Pressure: 30.1"   Gusts: NA
Location:  44.67°N, 100.77°W
Report Text: KPIR 250753Z AUTO 33005KT 10SM CLR 08/02 A3010 RMK AO2 SLP190 T00830022
Loading
Personal Weather Stations






























Interactive Weather Map
Tropical Storm Tracking
New forecast layout! Learn more

10-Day Weather Forecast

Advertisements
Track Severe Weather on mobile